createdAt,value
2022-10-14T00:01:12.749Z,10.52
2022-10-14T00:03:41.201Z,6.63
2022-10-14T00:06:14.902Z,8.23
2022-10-14T00:08:44.425Z,5.72
2022-10-14T00:11:16.139Z,6.43
2022-10-14T00:13:43.606Z,3.83
2022-10-14T00:16:23.281Z,6.88
2022-10-14T00:18:51.428Z,5.57
2022-10-14T00:21:19.755Z,9.75
2022-10-14T00:23:47.878Z,9.52
2022-10-14T00:26:17.997Z,5.55
2022-10-14T00:28:45.851Z,5.65
2022-10-14T00:31:13.779Z,3.97
2022-10-14T00:33:41.279Z,5.85
2022-10-14T00:36:09.456Z,8.00
2022-10-14T00:38:37.601Z,6.00
2022-10-14T00:41:05.931Z,6.05
2022-10-14T00:43:52.184Z,7.20
2022-10-14T00:46:19.630Z,6.80
2022-10-14T00:48:47.563Z,8.88
2022-10-14T00:51:15.246Z,12.15
2022-10-14T00:53:43.729Z,9.15
2022-10-14T00:56:13.432Z,6.22
2022-10-14T00:58:41.478Z,4.25
2022-10-14T01:01:09.103Z,9.60
2022-10-14T01:03:36.598Z,5.05
2022-10-14T01:06:18.192Z,4.18
2022-10-14T01:09:09.405Z,7.88
2022-10-14T01:11:42.692Z,8.85
2022-10-14T01:14:31.803Z,5.88
2022-10-14T01:17:02.714Z,8.80
2022-10-14T01:19:49.730Z,6.88
2022-10-14T01:22:25.618Z,3.83
2022-10-14T01:24:57.053Z,6.97
2022-10-14T01:27:49.626Z,7.72
2022-10-14T01:30:22.579Z,8.60
2022-10-14T01:32:50.016Z,7.20
2022-10-14T01:35:35.602Z,8.23
2022-10-14T01:38:27.354Z,6.45
2022-10-14T01:41:06.088Z,8.90
2022-10-14T01:43:35.113Z,9.98
2022-10-14T01:46:05.726Z,7.53
2022-10-14T01:48:41.146Z,7.70
2022-10-14T01:51:15.751Z,7.90
2022-10-14T01:53:48.084Z,8.77
2022-10-14T01:56:17.982Z,9.85
2022-10-14T01:58:46.886Z,13.40
2022-10-14T02:01:14.837Z,12.13
2022-10-14T02:03:44.928Z,9.93
2022-10-14T02:06:21.456Z,6.93
2022-10-14T02:09:22.697Z,7.68
2022-10-14T02:12:08.693Z,12.07
2022-10-14T02:14:54.319Z,8.52
2022-10-14T02:17:29.799Z,6.15
2022-10-14T02:20:21.563Z,8.73
2022-10-14T02:22:54.245Z,6.30
2022-10-14T02:25:34.466Z,10.70
2022-10-14T02:28:04.436Z,7.93
2022-10-14T02:30:35.234Z,10.63
2022-10-14T02:33:03.621Z,8.98
2022-10-14T02:35:33.883Z,9.38
2022-10-14T02:38:02.621Z,7.30
2022-10-14T02:40:36.755Z,4.90
2022-10-14T02:43:04.991Z,11.13
2022-10-14T02:45:32.536Z,8.82
2022-10-14T02:48:00.114Z,10.77
2022-10-14T02:50:27.592Z,7.43
2022-10-14T02:52:55.142Z,8.48
2022-10-14T02:55:22.608Z,8.98
2022-10-14T02:57:50.206Z,10.70
2022-10-14T03:00:18.911Z,10.50
2022-10-14T03:02:46.762Z,12.82
2022-10-14T03:05:14.116Z,9.82
2022-10-14T03:07:41.441Z,9.52
2022-10-14T03:10:09.226Z,9.80
2022-10-14T03:12:36.853Z,8.85
2022-10-14T03:15:04.609Z,8.55
2022-10-14T03:17:31.917Z,9.77
2022-10-14T03:19:59.574Z,8.27
2022-10-14T03:22:27.078Z,6.78
2022-10-14T03:24:54.469Z,8.30
2022-10-14T03:27:22.193Z,9.35
2022-10-14T03:29:49.788Z,13.10
2022-10-14T03:32:17.156Z,4.20
2022-10-14T03:34:44.628Z,6.32
2022-10-14T03:37:12.285Z,9.65
2022-10-14T03:39:39.816Z,9.25
2022-10-14T03:42:07.638Z,9.23
2022-10-14T03:44:35.090Z,9.48
2022-10-14T03:47:02.614Z,11.40
2022-10-14T03:49:30.144Z,8.70
2022-10-14T03:51:57.595Z,10.88
2022-10-14T03:54:25.981Z,9.82
2022-10-14T03:56:53.306Z,7.93
2022-10-14T03:59:20.792Z,8.50
2022-10-14T04:01:48.296Z,9.60
2022-10-14T04:04:15.905Z,15.20
2022-10-14T04:06:43.286Z,8.05
2022-10-14T04:09:10.664Z,8.15
2022-10-14T04:11:37.994Z,10.75
2022-10-14T04:14:05.623Z,10.85
2022-10-14T04:16:32.981Z,9.98
2022-10-14T04:19:00.286Z,10.52
2022-10-14T04:21:27.682Z,5.57
2022-10-14T04:23:56.059Z,9.60
2022-10-14T04:26:23.484Z,13.65
2022-10-14T04:28:50.911Z,8.70
2022-10-14T04:31:18.352Z,9.52
2022-10-14T04:33:45.703Z,11.07
2022-10-14T04:36:13.156Z,10.88
2022-10-14T04:38:40.619Z,10.60
2022-10-14T04:41:08.120Z,9.02
2022-10-14T04:43:35.759Z,8.80
2022-10-14T04:46:03.172Z,8.43
2022-10-14T04:48:30.485Z,8.52
2022-10-14T04:50:57.957Z,12.32
2022-10-14T04:53:25.367Z,9.18
2022-10-14T04:55:52.706Z,12.98
2022-10-14T04:58:20.490Z,8.18
2022-10-14T05:00:47.879Z,13.85
2022-10-14T05:03:16.209Z,10.82
2022-10-14T05:05:46.515Z,8.80
2022-10-14T05:08:14.000Z,10.95
2022-10-14T05:10:41.492Z,7.93
2022-10-14T05:13:09.201Z,16.55
2022-10-14T05:15:38.827Z,13.18
2022-10-14T05:18:13.227Z,9.40
2022-10-14T05:20:43.914Z,12.20
2022-10-14T05:23:12.045Z,13.65
2022-10-14T05:25:39.532Z,12.70
2022-10-14T05:28:07.057Z,11.63
2022-10-14T05:30:35.119Z,11.75
2022-10-14T05:33:02.559Z,12.38
2022-10-14T05:35:57.171Z,12.50
2022-10-14T05:38:17.653Z,13.50
2022-10-14T05:40:55.830Z,14.68
2022-10-14T05:43:29.307Z,12.55
2022-10-14T05:46:00.155Z,11.43
2022-10-14T05:48:27.746Z,12.80
2022-10-14T05:50:55.116Z,16.23
2022-10-14T05:53:23.807Z,11.80
2022-10-14T05:59:04.012Z,15.63
2022-10-14T06:13:05.162Z,11.63
2022-10-14T06:16:18.956Z,13.00
2022-10-14T06:18:49.867Z,16.17
2022-10-14T06:21:22.723Z,12.55
2022-10-14T06:23:50.281Z,16.58
2022-10-14T06:26:19.108Z,17.35
2022-10-14T06:28:47.723Z,14.80
2022-10-14T06:31:18.581Z,14.63
2022-10-14T06:33:47.980Z,17.20
2022-10-14T06:36:15.883Z,15.55
2022-10-14T06:38:43.812Z,18.73
2022-10-14T06:41:11.861Z,13.88
2022-10-14T06:43:43.136Z,17.38
2022-10-14T06:46:14.497Z,15.02
2022-10-14T06:48:49.390Z,17.50
2022-10-14T06:51:22.952Z,17.58
2022-10-14T06:54:00.773Z,16.08
2022-10-14T06:56:30.528Z,14.43
2022-10-14T06:58:58.512Z,15.10
2022-10-14T07:01:26.123Z,17.13
2022-10-14T07:03:56.671Z,16.35
2022-10-14T07:06:24.631Z,12.38
2022-10-14T07:08:55.322Z,18.60
2022-10-14T07:11:22.918Z,19.15
2022-10-14T07:13:52.256Z,13.98
2022-10-14T07:16:27.059Z,15.45
2022-10-14T07:18:55.833Z,16.48
2022-10-14T07:21:24.801Z,13.43
2022-10-14T07:23:57.250Z,16.33
2022-10-14T07:26:25.903Z,14.60
2022-10-14T07:28:54.289Z,14.50
2022-10-14T07:32:05.171Z,15.65
2022-10-14T07:34:37.481Z,16.67
2022-10-14T07:37:05.133Z,19.42
2022-10-14T07:42:28.497Z,16.42
2022-10-14T07:45:09.454Z,19.02
2022-10-14T07:47:37.176Z,22.90
2022-10-14T07:50:06.639Z,18.38
2022-10-14T07:52:35.289Z,20.42
2022-10-14T07:55:03.338Z,21.50
2022-10-14T07:58:11.573Z,17.15
2022-10-14T08:00:43.467Z,17.23
2022-10-14T08:06:32.422Z,17.83
2022-10-14T08:09:00.088Z,19.77
2022-10-14T08:11:29.089Z,27.30
2022-10-14T08:13:58.905Z,19.88
2022-10-14T08:16:35.384Z,20.98
2022-10-14T08:19:57.425Z,24.65
2022-10-14T08:22:29.902Z,18.58
2022-10-14T08:24:59.158Z,22.65
2022-10-14T08:28:02.972Z,19.75
2022-10-14T08:30:31.904Z,24.80
2022-10-14T08:33:04.253Z,26.77
2022-10-14T08:35:34.473Z,25.17
2022-10-14T08:38:02.982Z,20.10
2022-10-14T08:40:33.799Z,21.75
2022-10-14T08:43:08.966Z,24.27
2022-10-14T08:45:43.010Z,25.15
2022-10-14T08:48:19.414Z,22.08
2022-10-14T08:51:10.572Z,25.20
2022-10-14T08:53:43.907Z,23.35
2022-10-14T08:56:13.746Z,25.35
2022-10-14T08:58:49.423Z,23.98
2022-10-14T09:01:21.680Z,20.50
2022-10-14T09:03:50.532Z,25.85
2022-10-14T09:06:26.621Z,26.77
2022-10-14T09:09:00.860Z,26.35
2022-10-14T09:11:34.442Z,22.63
2022-10-14T09:14:06.186Z,23.98
2022-10-14T09:16:37.325Z,27.08
2022-10-14T09:19:32.803Z,25.23
2022-10-14T09:22:01.535Z,25.17
2022-10-14T09:24:35.631Z,21.23
2022-10-14T09:27:22.667Z,28.40
2022-10-14T09:30:05.079Z,28.88
2022-10-14T09:32:54.209Z,26.55
2022-10-14T09:35:30.979Z,25.25
2022-10-14T09:37:59.069Z,25.55
2022-10-14T09:40:36.665Z,30.52
2022-10-14T09:43:10.702Z,24.88
2022-10-14T09:46:03.547Z,26.52
2022-10-14T09:48:44.332Z,27.80
2022-10-14T09:51:22.278Z,31.55
2022-10-14T09:54:04.957Z,28.42
2022-10-14T10:02:52.829Z,25.88
2022-10-14T10:06:36.979Z,26.10
2022-10-14T10:09:06.152Z,26.48
2022-10-14T10:11:39.317Z,29.52
2022-10-14T10:14:36.282Z,22.63
2022-10-14T10:17:13.704Z,28.75
2022-10-14T10:19:52.677Z,26.98
2022-10-14T10:24:48.126Z,24.33
2022-10-14T10:27:28.317Z,27.27
2022-10-14T10:29:58.859Z,30.30
2022-10-14T10:32:39.135Z,26.05
2022-10-14T10:35:19.653Z,27.13
2022-10-14T10:38:03.708Z,19.70
2022-10-14T10:40:40.536Z,24.20
2022-10-14T10:43:18.724Z,34.60
2022-10-14T10:46:10.068Z,31.00
2022-10-14T10:48:51.763Z,24.35
2022-10-14T10:51:39.477Z,23.92
2022-10-14T10:54:27.216Z,30.30
2022-10-14T10:57:00.211Z,26.45
2022-10-14T10:59:56.453Z,23.35
2022-10-14T11:02:45.734Z,24.60
2022-10-14T11:05:43.496Z,29.30
2022-10-14T11:08:51.017Z,29.17
2022-10-14T11:11:45.419Z,27.08
2022-10-14T11:14:13.491Z,29.65
2022-10-14T11:17:04.603Z,28.75
2022-10-14T11:19:55.541Z,24.60
2022-10-14T11:22:59.751Z,28.75
2022-10-14T11:25:42.622Z,29.63
2022-10-14T11:28:31.401Z,30.40
2022-10-14T11:31:13.250Z,27.98
2022-10-14T11:34:21.037Z,31.10
2022-10-14T11:37:01.740Z,29.02
2022-10-14T11:39:35.800Z,36.13
2022-10-14T11:42:13.912Z,29.60
2022-10-14T11:44:43.457Z,29.27
2022-10-14T11:47:32.063Z,28.60
2022-10-14T11:50:17.761Z,30.42
2022-10-14T11:53:17.049Z,33.55
2022-10-14T11:56:11.480Z,27.95
2022-10-14T11:58:40.095Z,26.95
2022-10-14T12:01:18.797Z,28.55
2022-10-14T12:04:01.196Z,29.90
2022-10-14T12:06:38.494Z,30.23
2022-10-14T12:09:46.824Z,26.80
2022-10-14T12:12:17.711Z,27.38
2022-10-14T12:14:52.674Z,27.48
2022-10-14T12:17:32.690Z,29.30
2022-10-14T12:20:23.251Z,27.02
2022-10-14T12:22:52.069Z,26.67
2022-10-14T12:25:22.782Z,23.17
2022-10-14T12:27:52.656Z,27.00
2022-10-14T12:30:42.716Z,23.98
2022-10-14T12:33:13.260Z,24.25
2022-10-14T12:35:54.624Z,24.17
2022-10-14T12:38:22.494Z,32.05
2022-10-14T12:40:50.154Z,23.33
2022-10-14T12:43:29.883Z,25.83
2022-10-14T12:46:13.388Z,23.40
2022-10-14T12:48:51.849Z,25.25
2022-10-14T12:51:24.225Z,24.10
2022-10-14T12:54:16.331Z,27.00
2022-10-14T12:56:54.878Z,23.85
2022-10-14T12:59:37.065Z,21.40
2022-10-14T13:02:21.687Z,24.15
2022-10-14T13:04:55.931Z,23.05
2022-10-14T13:07:42.302Z,20.90
2022-10-14T13:10:46.155Z,20.23
2022-10-14T13:13:45.057Z,22.00
2022-10-14T13:16:21.654Z,22.80
2022-10-14T13:18:50.674Z,23.10
2022-10-14T13:21:36.603Z,24.48
2022-10-14T13:24:42.020Z,21.00
2022-10-14T13:27:42.047Z,22.70
2022-10-14T13:30:19.480Z,23.23
2022-10-14T13:32:55.279Z,20.05
2022-10-14T13:35:30.275Z,22.02
2022-10-14T13:38:14.024Z,26.52
2022-10-14T13:40:48.485Z,27.48
2022-10-14T13:43:18.735Z,19.90
2022-10-14T13:45:55.914Z,24.02
2022-10-14T13:48:33.790Z,21.15
2022-10-14T13:51:31.719Z,18.70
2022-10-14T13:54:20.004Z,22.33
2022-10-14T13:57:43.086Z,22.45
2022-10-14T14:00:41.042Z,24.65
2022-10-14T14:03:23.518Z,22.33
2022-10-14T14:05:51.772Z,21.38
2022-10-14T14:08:41.625Z,24.75
2022-10-14T14:11:18.012Z,23.40
2022-10-14T14:14:19.043Z,22.83
2022-10-14T14:16:56.190Z,27.33
2022-10-14T14:19:27.519Z,23.35
2022-10-14T14:22:19.817Z,25.70
2022-10-14T14:24:48.274Z,24.83
2022-10-14T14:27:22.050Z,26.38
2022-10-14T14:29:51.787Z,24.27
2022-10-14T14:32:22.021Z,24.02
2022-10-14T14:34:51.037Z,27.48
2022-10-14T14:37:55.191Z,31.73
2022-10-14T14:40:24.101Z,28.23
2022-10-14T14:42:59.079Z,27.83
2022-10-14T14:45:32.537Z,31.30
2022-10-14T14:48:05.149Z,35.38
2022-10-14T14:50:44.851Z,25.75
2022-10-14T14:53:15.533Z,26.20
2022-10-14T14:56:07.956Z,24.38
2022-10-14T14:58:49.519Z,26.25
2022-10-14T15:01:25.787Z,26.60
2022-10-14T15:04:13.273Z,22.60
2022-10-14T15:06:50.906Z,20.33
2022-10-14T15:09:52.987Z,27.50
2022-10-14T15:12:26.757Z,22.70
2022-10-14T15:14:58.288Z,24.33
2022-10-14T15:17:37.296Z,18.35
2022-10-14T15:20:05.184Z,30.40
2022-10-14T15:22:36.143Z,25.60
2022-10-14T15:25:21.694Z,27.00
2022-10-14T15:28:00.939Z,23.25
2022-10-14T15:30:35.106Z,25.05
2022-10-14T15:33:15.648Z,25.50
2022-10-14T15:35:44.823Z,30.23
2022-10-14T15:38:16.339Z,26.63
2022-10-14T15:40:45.918Z,27.75
2022-10-14T15:43:22.588Z,27.35
2022-10-14T15:46:12.547Z,28.02
2022-10-14T15:48:46.656Z,37.53
2022-10-14T15:51:16.939Z,31.52
2022-10-14T15:53:44.339Z,27.08
2022-10-14T15:56:12.041Z,29.80
2022-10-14T15:58:39.612Z,28.02
2022-10-14T16:01:07.529Z,34.55
2022-10-14T16:03:40.165Z,29.95
2022-10-14T16:06:09.264Z,28.95
2022-10-14T16:08:36.722Z,27.92
2022-10-14T16:11:04.558Z,36.05
2022-10-14T16:13:32.139Z,34.10
2022-10-14T16:16:01.584Z,36.50
2022-10-14T16:18:29.384Z,33.35
2022-10-14T16:20:57.055Z,34.85
2022-10-14T16:23:29.759Z,28.95
2022-10-14T16:26:02.213Z,27.67
2022-10-14T16:28:29.870Z,33.25
2022-10-14T16:31:00.216Z,22.02
2022-10-14T16:33:27.841Z,28.45
2022-10-14T16:35:57.397Z,28.95
2022-10-14T16:38:25.144Z,28.30
2022-10-14T16:40:57.181Z,23.10
2022-10-14T16:43:25.750Z,31.08
2022-10-14T16:45:53.729Z,35.33
2022-10-14T16:48:21.237Z,31.15
2022-10-14T16:50:52.304Z,34.42
2022-10-14T16:53:40.317Z,25.40
2022-10-14T16:56:38.663Z,28.50
2022-10-14T16:59:08.691Z,29.50
2022-10-14T17:01:36.369Z,29.45
2022-10-14T17:04:04.032Z,32.58
2022-10-14T17:06:31.678Z,35.92
2022-10-14T17:08:59.227Z,30.05
2022-10-14T17:11:29.750Z,31.80
2022-10-14T17:13:59.492Z,35.95
2022-10-14T17:16:30.503Z,32.92
2022-10-14T17:18:59.181Z,28.48
2022-10-14T17:21:29.806Z,30.92
2022-10-14T17:24:04.222Z,27.75
2022-10-14T17:26:33.664Z,31.85
2022-10-14T17:29:01.266Z,37.08
2022-10-14T17:31:29.174Z,30.88
2022-10-14T17:33:58.831Z,30.63
2022-10-14T17:36:29.165Z,28.58
2022-10-14T17:38:58.255Z,31.27
2022-10-14T17:41:27.786Z,29.58
2022-10-14T17:43:57.238Z,30.13
2022-10-14T17:46:26.349Z,31.98
2022-10-14T17:48:58.778Z,32.20
2022-10-14T17:51:27.493Z,29.90
2022-10-14T17:53:58.476Z,34.55
2022-10-14T17:56:27.854Z,32.65
2022-10-14T17:58:57.199Z,29.55
2022-10-14T18:01:37.519Z,33.30
2022-10-14T18:04:11.694Z,32.35
2022-10-14T18:06:39.589Z,30.63
2022-10-14T18:09:09.886Z,33.95
2022-10-14T18:14:29.777Z,34.70
2022-10-14T18:16:59.522Z,29.67
2022-10-14T18:19:27.254Z,31.83
2022-10-14T18:21:55.063Z,32.08
2022-10-14T18:24:23.182Z,30.83
2022-10-14T18:26:52.098Z,34.90
2022-10-14T18:29:19.967Z,32.58
2022-10-14T18:31:49.201Z,34.67
2022-10-14T18:34:17.447Z,35.00
2022-10-14T18:36:45.020Z,29.98
2022-10-14T18:39:13.663Z,30.20
2022-10-14T18:41:42.778Z,33.75
2022-10-14T18:44:10.496Z,33.45
2022-10-14T18:46:39.623Z,37.05
2022-10-14T18:49:10.033Z,33.65
2022-10-14T18:51:39.083Z,33.22
2022-10-14T18:54:15.153Z,38.45
2022-10-14T18:56:44.690Z,33.92
2022-10-14T18:59:15.561Z,30.70
2022-10-14T19:01:43.822Z,32.55
2022-10-14T19:04:13.330Z,31.85
2022-10-14T19:06:43.094Z,32.75
2022-10-14T19:09:12.862Z,32.22
2022-10-14T19:11:41.513Z,38.58
2022-10-14T19:14:10.171Z,27.60
2022-10-14T19:16:38.936Z,31.20
2022-10-14T19:19:15.232Z,28.00
2022-10-14T19:21:48.829Z,31.52
2022-10-14T19:24:17.240Z,32.47
2022-10-14T19:26:47.015Z,27.85
2022-10-14T19:29:16.084Z,32.60
2022-10-14T19:31:44.446Z,28.95
2022-10-14T19:34:14.977Z,33.90
2022-10-14T19:36:43.689Z,33.97
2022-10-14T19:39:13.931Z,30.30
2022-10-14T19:41:45.224Z,28.65
2022-10-14T19:44:14.416Z,31.02
2022-10-14T19:46:42.538Z,31.02
2022-10-14T19:49:15.536Z,27.98
2022-10-14T19:51:43.473Z,32.20
2022-10-14T19:54:12.532Z,32.03
2022-10-14T19:56:40.274Z,31.75
2022-10-14T19:59:08.015Z,35.92
2022-10-14T20:01:35.955Z,33.65
2022-10-14T20:04:03.600Z,38.05
2022-10-14T20:06:33.910Z,37.58
2022-10-14T20:09:02.305Z,31.95
2022-10-14T20:11:30.217Z,32.85
2022-10-14T20:13:57.938Z,32.40
2022-10-14T20:16:26.905Z,34.85
2022-10-14T20:18:55.370Z,33.28
2022-10-14T20:21:23.018Z,34.35
2022-10-14T20:23:50.863Z,34.55
2022-10-14T20:26:21.053Z,36.70
2022-10-14T20:28:49.866Z,35.22
2022-10-14T20:31:19.880Z,34.55
2022-10-14T20:33:47.558Z,33.85
2022-10-14T20:36:17.464Z,37.55
2022-10-14T20:38:45.819Z,32.67
2022-10-14T20:41:15.097Z,38.17
2022-10-14T20:43:43.816Z,38.83
2022-10-14T20:46:11.340Z,41.67
2022-10-14T20:48:39.252Z,46.65
2022-10-14T20:51:08.085Z,39.83
2022-10-14T20:53:35.765Z,45.53
2022-10-14T20:56:04.915Z,42.08
2022-10-14T20:58:33.166Z,43.15
2022-10-14T21:01:12.637Z,37.90
2022-10-14T21:03:42.269Z,37.65
2022-10-14T21:06:13.608Z,43.03
2022-10-14T21:08:41.415Z,39.17
2022-10-14T21:11:14.815Z,44.67
2022-10-14T21:13:47.580Z,40.80
2022-10-14T21:16:17.117Z,43.58
2022-10-14T21:18:53.582Z,42.88
2022-10-14T21:21:25.858Z,55.17
2022-10-14T21:23:53.566Z,45.78
2022-10-14T21:26:21.317Z,48.10
2022-10-14T21:28:48.871Z,43.88
2022-10-14T21:31:18.925Z,53.42
2022-10-14T21:33:48.006Z,53.72
2022-10-14T21:36:16.748Z,51.25
2022-10-14T21:38:44.676Z,54.58
2022-10-14T21:41:12.776Z,50.08
2022-10-14T21:43:43.323Z,54.67
2022-10-14T21:46:13.717Z,47.67
2022-10-14T21:48:43.166Z,43.13
2022-10-14T21:51:18.878Z,39.50
2022-10-14T21:53:46.550Z,42.25
2022-10-14T21:56:15.301Z,40.80
2022-10-14T21:58:43.623Z,45.38
2022-10-14T22:01:14.539Z,41.88
2022-10-14T22:03:43.677Z,39.38
2022-10-14T22:06:16.671Z,34.78
2022-10-14T22:08:49.146Z,39.58
2022-10-14T22:11:25.979Z,36.65
2022-10-14T22:13:55.316Z,40.60
2022-10-14T22:16:23.709Z,32.42
2022-10-14T22:18:53.727Z,36.15
2022-10-14T22:21:24.464Z,33.97
2022-10-14T22:23:52.078Z,39.42
2022-10-14T22:26:21.632Z,35.92
2022-10-14T22:28:50.293Z,42.33
2022-10-14T22:31:21.786Z,41.75
2022-10-14T22:33:49.490Z,50.53
2022-10-14T22:36:24.167Z,52.53
2022-10-14T22:38:53.744Z,62.45
2022-10-14T22:41:22.473Z,69.18
2022-10-14T22:43:58.529Z,70.50
2022-10-14T22:46:31.186Z,80.53
2022-10-14T22:49:01.162Z,83.63
2022-10-14T22:51:31.248Z,72.07
2022-10-14T22:53:59.057Z,77.07
2022-10-14T22:56:28.133Z,71.68
2022-10-14T22:58:57.671Z,77.70
2022-10-14T23:01:27.927Z,77.00
2022-10-14T23:03:57.268Z,72.75
2022-10-14T23:06:25.033Z,69.57
2022-10-14T23:08:53.039Z,72.53
2022-10-14T23:11:22.415Z,68.78
2022-10-14T23:13:50.060Z,70.53
2022-10-14T23:16:23.187Z,66.57
2022-10-14T23:18:51.923Z,78.45
2022-10-14T23:21:20.894Z,76.70
2022-10-14T23:23:50.965Z,78.75
2022-10-14T23:26:24.120Z,76.85
2022-10-14T23:28:56.431Z,65.18
2022-10-14T23:31:26.274Z,74.43
2022-10-14T23:33:54.432Z,86.97
2022-10-14T23:36:22.950Z,63.72
2022-10-14T23:38:52.649Z,81.60
2022-10-14T23:41:22.376Z,73.65
2022-10-14T23:43:51.018Z,68.68
2022-10-14T23:46:19.832Z,83.80
2022-10-14T23:48:55.526Z,66.97
2022-10-14T23:51:34.962Z,77.25
2022-10-14T23:54:02.610Z,86.53
2022-10-14T23:56:30.579Z,85.78
2022-10-14T23:58:58.023Z,85.45
